createdAt,value
2019-03-28T18:13:05.662Z,15.50
2019-03-28T18:15:13.350Z,14.33
2019-03-28T18:17:20.091Z,13.78
2019-03-28T18:19:26.751Z,11.90
2019-03-28T18:21:33.446Z,15.80
2019-03-28T18:23:40.183Z,18.25
2019-03-28T18:25:46.847Z,21.48
2019-03-28T18:27:53.541Z,19.32
2019-03-28T18:30:00.265Z,18.25
2019-03-28T18:32:06.997Z,18.40
2019-03-28T18:34:13.761Z,17.10
2019-03-28T18:36:20.427Z,19.55
2019-03-28T18:38:27.131Z,53.20
2019-03-28T18:40:33.902Z,127.10
2019-03-28T18:42:42.451Z,145.12
2019-03-28T18:44:49.123Z,73.37
2019-03-28T18:46:55.820Z,39.67
2019-03-28T18:49:02.499Z,94.32
2019-03-28T18:51:09.182Z,110.15
2019-03-28T18:53:15.895Z,93.33
2019-03-28T18:55:22.589Z,52.80
2019-03-28T18:57:29.246Z,58.00
2019-03-28T18:59:35.932Z,48.60
2019-03-28T19:01:42.785Z,39.73
2019-03-28T19:03:49.448Z,41.18
2019-03-28T19:05:56.189Z,34.85
2019-03-28T19:08:02.851Z,20.05
2019-03-28T19:10:10.385Z,33.67
2019-03-28T19:12:17.157Z,32.55
2019-03-28T19:14:23.891Z,23.87
2019-03-28T19:16:30.559Z,28.32
2019-03-28T19:18:37.257Z,31.50
2019-03-28T19:20:43.922Z,34.40
2019-03-28T19:22:52.233Z,35.73
2019-03-28T19:24:58.998Z,30.80
2019-03-28T19:27:05.667Z,30.75
2019-03-28T19:29:12.413Z,32.93
2019-03-28T19:31:19.102Z,32.23
2019-03-28T19:33:25.769Z,39.30
2019-03-28T19:35:33.540Z,30.32
2019-03-28T19:37:42.421Z,35.65
2019-03-28T19:39:49.140Z,44.93
2019-03-28T19:41:55.996Z,31.57
2019-03-28T19:44:03.872Z,31.87
2019-03-28T19:46:10.532Z,29.15
2019-03-28T19:48:17.208Z,26.87
2019-03-28T19:50:30.454Z,29.12
2019-03-28T19:52:37.616Z,30.15
2019-03-28T19:54:44.388Z,27.20
2019-03-28T19:56:51.087Z,22.65
2019-03-28T19:58:59.217Z,28.73
2019-03-28T20:01:07.012Z,24.45
2019-03-28T20:03:13.724Z,24.65
2019-03-28T20:05:20.392Z,22.70
2019-03-28T20:07:27.132Z,23.77
2019-03-28T20:09:33.832Z,25.12
2019-03-28T20:11:40.569Z,29.52
2019-03-28T20:13:47.302Z,26.87
2019-03-28T20:15:55.809Z,26.20
2019-03-28T20:18:02.549Z,28.57
2019-03-28T20:20:10.420Z,22.77
2019-03-28T20:22:17.289Z,25.32
2019-03-28T20:24:23.965Z,21.10
2019-03-28T20:26:30.700Z,27.15
2019-03-28T20:28:39.075Z,31.12
2019-03-28T20:30:46.125Z,26.57
2019-03-28T20:32:53.795Z,24.27
2019-03-28T20:35:00.600Z,36.45
2019-03-28T20:37:07.338Z,42.50
2019-03-28T20:39:14.073Z,40.48
2019-03-28T20:41:20.772Z,47.38
2019-03-28T20:43:28.217Z,39.03
2019-03-28T20:45:34.947Z,37.65
2019-03-28T20:47:44.503Z,34.92
2019-03-28T20:49:52.712Z,50.33
2019-03-28T20:51:59.452Z,43.30
2019-03-28T20:54:10.155Z,44.45
2019-03-28T20:56:17.765Z,39.87
2019-03-28T20:58:24.711Z,41.80
2019-03-28T21:00:48.180Z,39.42
2019-03-28T21:02:54.914Z,40.73
2019-03-28T21:05:02.529Z,34.03
2019-03-28T21:07:09.424Z,36.30
2019-03-28T21:09:16.091Z,34.75
2019-03-28T21:11:22.760Z,36.08
2019-03-28T21:13:30.030Z,35.20
2019-03-28T21:15:36.876Z,35.10
2019-03-28T21:17:43.548Z,36.28
2019-03-28T21:19:50.314Z,35.50
2019-03-28T21:21:56.985Z,36.77
2019-03-28T21:24:04.092Z,33.23
2019-03-28T21:26:11.589Z,34.78
2019-03-28T21:28:18.321Z,37.67
2019-03-28T21:30:27.067Z,32.98
2019-03-28T21:32:33.396Z,35.78
2019-03-28T21:34:40.151Z,27.17
2019-03-28T21:36:48.401Z,27.15
2019-03-28T21:38:55.186Z,26.95
2019-03-28T21:41:01.861Z,27.05
2019-03-28T21:43:08.530Z,34.13
2019-03-28T21:45:15.609Z,37.78
2019-03-28T21:47:22.339Z,32.93
2019-03-28T21:49:29.002Z,36.15
2019-03-28T21:51:35.766Z,29.60
2019-03-28T21:53:42.527Z,31.40
2019-03-28T21:55:55.557Z,31.45
2019-03-28T21:57:57.693Z,27.35
2019-03-28T22:00:07.105Z,29.37
2019-03-28T22:02:13.883Z,28.17
2019-03-28T22:04:20.649Z,28.17
2019-03-28T22:06:27.373Z,28.98
2019-03-28T22:08:35.688Z,27.32
2019-03-28T22:10:43.077Z,35.65
2019-03-28T22:12:50.247Z,30.12
2019-03-28T22:14:56.987Z,35.13
2019-03-28T22:17:03.772Z,39.53
2019-03-28T22:19:10.442Z,34.50
2019-03-28T22:21:17.111Z,43.05
2019-03-28T22:23:23.808Z,42.50
2019-03-28T22:25:30.476Z,51.50
2019-03-28T22:27:37.223Z,56.53
2019-03-28T22:29:43.910Z,58.68
2019-03-28T22:31:50.572Z,52.13
2019-03-28T22:33:57.337Z,57.15
2019-03-28T22:36:04.054Z,56.02
2019-03-28T22:38:10.717Z,65.12
2019-03-28T22:40:17.392Z,70.55
2019-03-28T22:42:24.090Z,69.27
2019-03-28T22:44:33.766Z,70.87
2019-03-28T22:46:39.765Z,74.12
2019-03-28T22:48:46.794Z,68.70
2019-03-28T22:50:53.460Z,73.37
2019-03-28T22:53:00.060Z,73.37
2019-03-28T22:55:09.623Z,67.42
2019-03-28T22:57:16.388Z,65.50
2019-03-28T22:59:23.263Z,70.70
2019-03-28T23:01:30.071Z,66.20
2019-03-28T23:03:36.804Z,65.37
2019-03-28T23:05:43.482Z,58.10
2019-03-28T23:07:51.177Z,66.22
2019-03-28T23:09:57.847Z,66.70
2019-03-28T23:12:05.586Z,57.03
2019-03-28T23:14:12.283Z,63.55
2019-03-28T23:16:18.952Z,58.30
2019-03-28T23:18:25.639Z,62.35
2019-03-28T23:20:33.799Z,59.55
2019-03-28T23:22:40.868Z,63.85
2019-03-28T23:24:47.545Z,59.08
2019-03-28T23:26:54.249Z,60.67
2019-03-28T23:29:04.054Z,67.40
2019-03-28T23:31:10.717Z,65.47
2019-03-28T23:33:17.403Z,62.67
2019-03-28T23:35:24.112Z,71.92
2019-03-28T23:37:30.875Z,70.12
2019-03-28T23:39:37.847Z,66.25
2019-03-28T23:41:45.015Z,66.50
2019-03-28T23:43:51.688Z,68.50
2019-03-28T23:45:58.381Z,63.17
2019-03-28T23:48:05.158Z,65.87
2019-03-28T23:50:12.003Z,67.53
2019-03-28T23:52:18.697Z,66.55
2019-03-28T23:54:25.477Z,77.82
2019-03-28T23:56:33.017Z,72.32
2019-03-28T23:58:39.781Z,74.55
